createdAt,value
2018-06-30T13:54:31.513Z,25.80
2018-06-30T13:57:00.419Z,25.60
2018-06-30T13:59:29.314Z,25.80
2018-06-30T14:01:58.215Z,26.10
2018-06-30T14:04:27.126Z,26.10
2018-06-30T14:06:56.043Z,26.10
2018-06-30T14:09:24.939Z,26.10
2018-06-30T14:11:53.842Z,26.10
2018-06-30T14:14:22.750Z,26.20
2018-06-30T14:16:51.671Z,26.30
2018-06-30T14:19:20.574Z,26.30
2018-06-30T14:21:49.474Z,26.40
2018-06-30T14:24:18.371Z,26.40
2018-06-30T14:26:47.283Z,26.50
2018-06-30T14:29:16.174Z,26.30
2018-06-30T14:31:45.069Z,26.10
2018-06-30T14:34:14.054Z,26.10
2018-06-30T14:36:43.021Z,25.80
2018-06-30T14:39:12.958Z,25.90
2018-06-30T14:41:41.884Z,25.90
2018-06-30T14:44:10.810Z,26.00
2018-06-30T14:46:39.712Z,25.80
2018-06-30T14:49:08.607Z,25.80
2018-06-30T14:51:37.506Z,25.80
2018-06-30T14:54:06.406Z,25.90
2018-06-30T14:56:35.306Z,26.00
2018-06-30T14:59:04.187Z,26.10
2018-06-30T15:01:33.079Z,25.90
2018-06-30T15:04:01.959Z,25.90
2018-06-30T15:06:30.870Z,25.80
2018-06-30T15:08:59.760Z,25.60
2018-06-30T15:11:28.991Z,25.60
2018-06-30T15:13:57.880Z,25.90
2018-06-30T15:16:26.819Z,25.80
2018-06-30T15:18:55.786Z,25.90
2018-06-30T15:21:24.631Z,26.10
2018-06-30T15:23:54.150Z,26.00
2018-06-30T15:26:23.047Z,25.70
2018-06-30T15:28:51.930Z,25.60
2018-06-30T15:31:20.854Z,25.50
2018-06-30T15:33:49.743Z,25.50
2018-06-30T15:36:18.638Z,25.30
2018-06-30T15:38:47.535Z,25.50
2018-06-30T15:41:16.426Z,25.40
2018-06-30T15:43:45.327Z,25.30
2018-06-30T15:46:14.211Z,25.30
2018-06-30T15:48:43.110Z,25.20
2018-06-30T15:51:12.032Z,25.20
2018-06-30T15:53:40.946Z,25.30
2018-06-30T15:56:09.866Z,25.30
2018-06-30T15:58:38.773Z,25.50
2018-06-30T16:01:07.964Z,25.50
2018-06-30T16:03:36.869Z,25.50
2018-06-30T16:06:05.758Z,25.40
2018-06-30T16:08:34.660Z,25.30
2018-06-30T16:11:03.554Z,25.10
2018-06-30T16:13:32.499Z,25.30
2018-06-30T16:16:01.426Z,25.30
2018-06-30T16:18:30.314Z,25.30
2018-06-30T16:20:59.247Z,25.40
2018-06-30T16:23:28.122Z,25.20
2018-06-30T16:25:57.007Z,25.20
2018-06-30T16:28:26.967Z,25.20
2018-06-30T16:30:55.912Z,25.00
2018-06-30T16:33:25.631Z,25.10
2018-06-30T16:35:54.716Z,25.00
2018-06-30T16:38:23.618Z,25.00
2018-06-30T16:40:52.511Z,25.00
2018-06-30T16:43:21.666Z,24.70
2018-06-30T16:48:19.809Z,24.80
2018-06-30T16:50:49.522Z,24.80
2018-06-30T16:53:18.459Z,24.80
2018-06-30T16:55:47.484Z,24.80
2018-06-30T16:58:16.778Z,24.60
2018-06-30T17:00:45.659Z,24.60
2018-06-30T17:03:14.557Z,24.70
2018-06-30T17:05:43.442Z,24.60
2018-06-30T17:08:12.370Z,24.50
2018-06-30T17:10:41.264Z,24.50
2018-06-30T17:13:10.163Z,24.40
2018-06-30T17:15:39.071Z,24.30
2018-06-30T17:18:08.058Z,24.20
2018-06-30T17:20:36.963Z,24.20
2018-06-30T17:23:06.025Z,24.20
2018-06-30T17:25:34.858Z,24.20
2018-06-30T17:28:03.755Z,24.30
2018-06-30T17:30:32.635Z,24.20
2018-06-30T17:33:01.530Z,24.10
2018-06-30T17:35:30.410Z,24.00
2018-06-30T17:37:59.302Z,23.90
2018-06-30T17:40:28.450Z,23.90
2018-06-30T17:42:57.362Z,23.80
2018-06-30T17:45:26.277Z,23.80
2018-06-30T17:47:55.166Z,23.60
2018-06-30T17:50:24.063Z,23.70
2018-06-30T17:52:52.966Z,23.70
2018-06-30T17:55:21.839Z,23.70
2018-06-30T17:57:50.735Z,23.60
2018-06-30T18:00:19.655Z,23.50
2018-06-30T18:02:48.579Z,23.60
2018-06-30T18:05:17.538Z,23.60
2018-06-30T18:07:46.505Z,23.50
2018-06-30T18:10:15.916Z,23.60
2018-06-30T18:12:45.416Z,23.40
2018-06-30T18:15:14.633Z,23.30
2018-06-30T18:17:43.784Z,23.20
2018-06-30T18:20:12.853Z,23.20
2018-06-30T18:22:42.005Z,23.00
2018-06-30T18:25:11.029Z,23.00
2018-06-30T18:27:42.052Z,22.80
2018-06-30T18:30:11.722Z,22.80
2018-06-30T18:32:41.125Z,22.80
2018-06-30T18:35:10.343Z,22.60
2018-06-30T18:37:40.567Z,22.60
2018-06-30T18:40:09.614Z,22.40
2018-06-30T18:42:38.635Z,22.30
2018-06-30T18:45:08.053Z,22.20
2018-06-30T18:47:37.144Z,22.20
2018-06-30T18:50:06.113Z,22.10
2018-06-30T18:52:35.837Z,22.00
2018-06-30T18:55:05.677Z,21.90
2018-06-30T18:57:34.698Z,21.90
2018-06-30T19:00:04.258Z,21.80
2018-06-30T19:02:33.589Z,21.80
2018-06-30T19:05:03.085Z,21.80
2018-06-30T19:07:32.228Z,21.60
2018-06-30T19:10:02.042Z,21.60
2018-06-30T19:12:31.214Z,21.50
2018-06-30T19:15:00.403Z,21.30
2018-06-30T19:17:30.540Z,21.20
2018-06-30T19:20:00.065Z,21.10
2018-06-30T19:22:29.886Z,21.00
2018-06-30T19:24:59.422Z,20.90
2018-06-30T19:27:28.943Z,20.80
2018-06-30T19:29:57.872Z,20.70
2018-06-30T19:32:27.111Z,20.60
2018-06-30T19:34:56.089Z,20.50
2018-06-30T19:37:25.011Z,20.40
2018-06-30T19:39:54.033Z,20.30
2018-06-30T19:42:23.086Z,20.20
2018-06-30T19:44:59.191Z,20.10
2018-06-30T19:47:28.067Z,20.10
2018-06-30T19:49:56.994Z,20.00
2018-06-30T19:52:25.890Z,19.80
2018-06-30T19:54:56.151Z,19.80
2018-06-30T19:57:26.537Z,19.70
2018-06-30T19:59:55.503Z,19.60
2018-06-30T20:02:24.482Z,19.50
2018-06-30T20:04:54.109Z,19.40
2018-06-30T20:07:23.019Z,19.40
2018-06-30T20:09:51.994Z,19.30
2018-06-30T20:12:20.891Z,19.30
2018-06-30T20:14:49.793Z,19.20
2018-06-30T20:17:18.725Z,19.10
2018-06-30T20:19:47.614Z,19.10
2018-06-30T20:22:16.519Z,19.00
2018-06-30T20:24:45.409Z,18.90
2018-06-30T20:27:14.317Z,18.90
2018-06-30T20:29:43.251Z,18.80
2018-06-30T20:32:12.166Z,18.70
2018-06-30T20:34:41.059Z,18.60
2018-06-30T20:37:09.975Z,18.40
2018-06-30T20:39:38.908Z,18.40
2018-06-30T20:42:07.788Z,18.30
2018-06-30T20:44:36.691Z,18.20
2018-06-30T20:47:05.629Z,18.20
2018-06-30T20:49:34.510Z,18.10
2018-06-30T20:52:03.426Z,18.10
2018-06-30T20:54:32.325Z,18.00
2018-06-30T20:57:01.234Z,18.10
2018-06-30T20:59:30.143Z,18.00
2018-06-30T21:01:59.070Z,18.10
2018-06-30T21:04:28.084Z,18.00
2018-06-30T21:06:57.012Z,18.00
2018-06-30T21:09:25.947Z,18.00
2018-06-30T21:11:54.910Z,17.90
2018-06-30T21:14:23.826Z,17.90
2018-06-30T21:16:52.745Z,17.90
2018-06-30T21:19:21.654Z,17.80
2018-06-30T21:21:50.554Z,17.80
2018-06-30T21:24:19.447Z,17.70
2018-06-30T21:26:48.351Z,17.80
2018-06-30T21:29:17.239Z,17.70
2018-06-30T21:31:46.141Z,17.70
2018-06-30T21:34:15.036Z,17.70
2018-06-30T21:36:43.948Z,17.70
2018-06-30T21:39:13.458Z,17.60
2018-06-30T21:41:42.388Z,17.50
2018-06-30T21:44:11.279Z,17.50
2018-06-30T21:46:40.198Z,17.50
2018-06-30T21:49:09.402Z,17.40
2018-06-30T21:51:38.314Z,17.40
2018-06-30T21:54:07.663Z,17.30
2018-06-30T21:56:36.575Z,17.20
2018-06-30T21:59:05.479Z,17.20
2018-06-30T22:01:34.394Z,17.20
2018-06-30T22:04:03.295Z,17.10
2018-06-30T22:06:32.229Z,17.10
2018-06-30T22:09:01.120Z,17.00
2018-06-30T22:11:30.142Z,17.00
2018-06-30T22:13:58.967Z,16.90
2018-06-30T22:16:27.944Z,16.90
2018-06-30T22:18:56.854Z,16.80
2018-06-30T22:21:25.757Z,16.80
2018-06-30T22:23:54.671Z,16.80
2018-06-30T22:26:23.625Z,16.70
2018-06-30T22:28:52.485Z,16.70
2018-06-30T22:31:21.374Z,16.60
2018-06-30T22:33:50.298Z,16.50
2018-06-30T22:36:19.189Z,16.40
2018-06-30T22:38:48.107Z,16.30
2018-06-30T22:41:17.068Z,16.20
2018-06-30T22:43:46.007Z,16.10
2018-06-30T22:46:14.898Z,16.00
2018-06-30T22:48:43.814Z,15.90
2018-06-30T22:51:12.718Z,15.80
2018-06-30T22:53:41.633Z,15.80
2018-06-30T22:56:10.527Z,15.70
2018-06-30T22:58:39.435Z,15.60
2018-06-30T23:01:08.338Z,15.60
2018-06-30T23:03:37.246Z,15.50
2018-06-30T23:06:06.152Z,15.50
2018-06-30T23:08:39.327Z,15.50
2018-06-30T23:11:08.210Z,15.30
2018-06-30T23:13:37.126Z,15.30
2018-06-30T23:16:06.050Z,15.30
2018-06-30T23:18:35.259Z,15.40
2018-06-30T23:21:04.434Z,15.40
2018-06-30T23:23:33.350Z,15.30
2018-06-30T23:26:02.269Z,15.40
2018-06-30T23:28:31.182Z,15.40
2018-06-30T23:31:00.077Z,15.30
2018-06-30T23:33:28.972Z,15.30
2018-06-30T23:35:57.863Z,15.40
2018-06-30T23:38:26.767Z,15.40
2018-06-30T23:40:55.919Z,15.30
2018-06-30T23:43:24.831Z,15.30
2018-06-30T23:45:53.754Z,15.30
2018-06-30T23:48:22.666Z,15.20
2018-06-30T23:50:51.558Z,15.20
2018-06-30T23:53:20.478Z,15.20
2018-06-30T23:55:49.416Z,15.20
2018-06-30T23:58:18.323Z,15.20
